sensor_id;sensor_type;location;lat;lon;timestamp;P1;durP1;ratioP1;P2;durP2;ratioP2
44985;SDS011;30721;49.380;7.736;2024-03-02T00:01:53;2.90;;;1.90;;
44985;SDS011;30721;49.380;7.736;2024-03-02T00:04:18;2.25;;;1.88;;
44985;SDS011;30721;49.380;7.736;2024-03-02T00:06:44;2.72;;;1.77;;
44985;SDS011;30721;49.380;7.736;2024-03-02T00:09:10;1.92;;;1.42;;
44985;SDS011;30721;49.380;7.736;2024-03-02T00:11:37;1.83;;;1.30;;
44985;SDS011;30721;49.380;7.736;2024-03-02T00:14:04;1.63;;;1.42;;
44985;SDS011;30721;49.380;7.736;2024-03-02T00:16:30;2.47;;;1.30;;
44985;SDS011;30721;49.380;7.736;2024-03-02T00:18:56;2.15;;;1.65;;
44985;SDS011;30721;49.380;7.736;2024-03-02T00:21:30;1.50;;;1.08;;
44985;SDS011;30721;49.380;7.736;2024-03-02T00:23:56;1.98;;;1.30;;
44985;SDS011;30721;49.380;7.736;2024-03-02T00:26:21;1.38;;;1.17;;
44985;SDS011;30721;49.380;7.736;2024-03-02T00:28:47;1.60;;;1.40;;
44985;SDS011;30721;49.380;7.736;2024-03-02T00:31:15;1.13;;;1.00;;
44985;SDS011;30721;49.380;7.736;2024-03-02T00:33:44;1.75;;;0.95;;
44985;SDS011;30721;49.380;7.736;2024-03-02T00:36:14;1.60;;;1.17;;
44985;SDS011;30721;49.380;7.736;2024-03-02T00:38:42;2.17;;;1.00;;
44985;SDS011;30721;49.380;7.736;2024-03-02T00:41:17;1.55;;;0.88;;
44985;SDS011;30721;49.380;7.736;2024-03-02T00:46:27;1.80;;;1.20;;
44985;SDS011;30721;49.380;7.736;2024-03-02T00:48:55;1.10;;;0.90;;
44985;SDS011;30721;49.380;7.736;2024-03-02T00:51:22;1.83;;;0.95;;
44985;SDS011;30721;49.380;7.736;2024-03-02T00:53:49;2.55;;;1.17;;
44985;SDS011;30721;49.380;7.736;2024-03-02T00:56:15;1.30;;;0.95;;
44985;SDS011;30721;49.380;7.736;2024-03-02T00:58:42;1.50;;;1.20;;
44985;SDS011;30721;49.380;7.736;2024-03-02T01:01:07;1.30;;;1.00;;
44985;SDS011;30721;49.380;7.736;2024-03-02T01:03:33;1.52;;;0.90;;
44985;SDS011;30721;49.380;7.736;2024-03-02T01:05:59;1.85;;;1.02;;
44985;SDS011;30721;49.380;7.736;2024-03-02T01:08:24;3.30;;;1.48;;
44985;SDS011;30721;49.380;7.736;2024-03-02T01:10:50;1.52;;;1.02;;
44985;SDS011;30721;49.380;7.736;2024-03-02T01:13:15;1.52;;;0.80;;
44985;SDS011;30721;49.380;7.736;2024-03-02T01:15:41;1.52;;;1.23;;
44985;SDS011;30721;49.380;7.736;2024-03-02T01:18:06;1.52;;;1.17;;
44985;SDS011;30721;49.380;7.736;2024-03-02T01:20:32;2.22;;;1.40;;
44985;SDS011;30721;49.380;7.736;2024-03-02T01:22:57;1.40;;;1.00;;
44985;SDS011;30721;49.380;7.736;2024-03-02T01:25:22;1.55;;;1.20;;
44985;SDS011;30721;49.380;7.736;2024-03-02T01:27:48;3.22;;;1.30;;
44985;SDS011;30721;49.380;7.736;2024-03-02T01:30:13;1.20;;;1.10;;
44985;SDS011;30721;49.380;7.736;2024-03-02T01:32:39;1.50;;;1.25;;
44985;SDS011;30721;49.380;7.736;2024-03-02T01:35:04;1.30;;;1.10;;
44985;SDS011;30721;49.380;7.736;2024-03-02T01:37:30;1.85;;;1.15;;
44985;SDS011;30721;49.380;7.736;2024-03-02T01:39:55;2.35;;;0.90;;
44985;SDS011;30721;49.380;7.736;2024-03-02T01:42:21;2.10;;;1.50;;
44985;SDS011;30721;49.380;7.736;2024-03-02T01:44:47;2.38;;;1.52;;
44985;SDS011;30721;49.380;7.736;2024-03-02T01:47:12;1.98;;;1.35;;
44985;SDS011;30721;49.380;7.736;2024-03-02T01:49:38;2.67;;;1.30;;
44985;SDS011;30721;49.380;7.736;2024-03-02T01:52:04;2.03;;;1.63;;
44985;SDS011;30721;49.380;7.736;2024-03-02T01:54:29;1.73;;;1.10;;
44985;SDS011;30721;49.380;7.736;2024-03-02T01:56:54;1.90;;;1.27;;
44985;SDS011;30721;49.380;7.736;2024-03-02T01:59:20;2.58;;;1.30;;
44985;SDS011;30721;49.380;7.736;2024-03-02T02:01:45;1.77;;;1.48;;
44985;SDS011;30721;49.380;7.736;2024-03-02T02:04:11;2.10;;;1.30;;
44985;SDS011;30721;49.380;7.736;2024-03-02T02:06:36;1.67;;;1.50;;
44985;SDS011;30721;49.380;7.736;2024-03-02T02:09:02;1.75;;;1.20;;
44985;SDS011;30721;49.380;7.736;2024-03-02T02:11:27;1.30;;;1.20;;
44985;SDS011;30721;49.380;7.736;2024-03-02T02:13:53;2.72;;;1.40;;
44985;SDS011;30721;49.380;7.736;2024-03-02T02:16:20;2.42;;;1.60;;
44985;SDS011;30721;49.380;7.736;2024-03-02T02:18:46;2.17;;;1.50;;
44985;SDS011;30721;49.380;7.736;2024-03-02T02:21:11;2.28;;;1.70;;
44985;SDS011;30721;49.380;7.736;2024-03-02T02:23:36;2.75;;;1.70;;
44985;SDS011;30721;49.380;7.736;2024-03-02T02:26:02;1.83;;;1.60;;
44985;SDS011;30721;49.380;7.736;2024-03-02T02:28:28;2.85;;;1.55;;
44985;SDS011;30721;49.380;7.736;2024-03-02T02:30:54;1.92;;;1.40;;
44985;SDS011;30721;49.380;7.736;2024-03-02T02:33:21;2.80;;;2.05;;
44985;SDS011;30721;49.380;7.736;2024-03-02T02:35:46;2.88;;;1.60;;
44985;SDS011;30721;49.380;7.736;2024-03-02T02:38:12;2.03;;;1.80;;
44985;SDS011;30721;49.380;7.736;2024-03-02T02:40:37;2.72;;;2.00;;
44985;SDS011;30721;49.380;7.736;2024-03-02T02:43:03;2.70;;;1.70;;
44985;SDS011;30721;49.380;7.736;2024-03-02T02:45:28;2.70;;;1.60;;
44985;SDS011;30721;49.380;7.736;2024-03-02T02:47:54;2.38;;;1.63;;
44985;SDS011;30721;49.380;7.736;2024-03-02T02:50:19;2.35;;;1.90;;
44985;SDS011;30721;49.380;7.736;2024-03-02T02:52:45;2.17;;;1.77;;
44985;SDS011;30721;49.380;7.736;2024-03-02T02:55:11;2.88;;;1.70;;
44985;SDS011;30721;49.380;7.736;2024-03-02T02:57:37;1.95;;;1.63;;
44985;SDS011;30721;49.380;7.736;2024-03-02T03:00:04;2.97;;;2.05;;
44985;SDS011;30721;49.380;7.736;2024-03-02T03:02:35;3.42;;;1.85;;
44985;SDS011;30721;49.380;7.736;2024-03-02T03:05:04;2.95;;;1.95;;
44985;SDS011;30721;49.380;7.736;2024-03-02T03:07:33;2.72;;;2.00;;
44985;SDS011;30721;49.380;7.736;2024-03-02T03:10:02;2.85;;;1.95;;
44985;SDS011;30721;49.380;7.736;2024-03-02T03:12:29;3.80;;;2.30;;
44985;SDS011;30721;49.380;7.736;2024-03-02T03:14:55;2.50;;;2.08;;
44985;SDS011;30721;49.380;7.736;2024-03-02T03:17:21;2.85;;;1.83;;
44985;SDS011;30721;49.380;7.736;2024-03-02T03:19:47;3.75;;;2.30;;
44985;SDS011;30721;49.380;7.736;2024-03-02T03:22:12;2.78;;;1.90;;
44985;SDS011;30721;49.380;7.736;2024-03-02T03:24:38;4.25;;;2.45;;
44985;SDS011;30721;49.380;7.736;2024-03-02T03:27:04;3.78;;;2.00;;
44985;SDS011;30721;49.380;7.736;2024-03-02T03:29:29;2.50;;;1.90;;
44985;SDS011;30721;49.380;7.736;2024-03-02T03:31:54;2.35;;;1.77;;
44985;SDS011;30721;49.380;7.736;2024-03-02T03:34:20;2.55;;;1.95;;
44985;SDS011;30721;49.380;7.736;2024-03-02T03:36:46;2.55;;;2.05;;
44985;SDS011;30721;49.380;7.736;2024-03-02T03:39:12;3.15;;;2.30;;
44985;SDS011;30721;49.380;7.736;2024-03-02T03:41:37;3.63;;;2.25;;
44985;SDS011;30721;49.380;7.736;2024-03-02T03:44:02;3.35;;;2.50;;
44985;SDS011;30721;49.380;7.736;2024-03-02T03:46:28;4.88;;;2.95;;
44985;SDS011;30721;49.380;7.736;2024-03-02T03:48:54;3.10;;;2.63;;
44985;SDS011;30721;49.380;7.736;2024-03-02T03:51:21;3.92;;;2.92;;
44985;SDS011;30721;49.380;7.736;2024-03-02T03:53:47;3.03;;;2.13;;
44985;SDS011;30721;49.380;7.736;2024-03-02T03:56:13;4.28;;;3.42;;
44985;SDS011;30721;49.380;7.736;2024-03-02T03:58:38;4.30;;;2.70;;
44985;SDS011;30721;49.380;7.736;2024-03-02T04:01:04;4.18;;;2.90;;
44985;SDS011;30721;49.380;7.736;2024-03-02T04:03:29;4.53;;;2.22;;
44985;SDS011;30721;49.380;7.736;2024-03-02T04:05:55;4.93;;;3.03;;
44985;SDS011;30721;49.380;7.736;2024-03-02T04:08:21;3.30;;;2.88;;
44985;SDS011;30721;49.380;7.736;2024-03-02T04:10:46;3.58;;;2.65;;
44985;SDS011;30721;49.380;7.736;2024-03-02T04:13:11;3.38;;;2.78;;
44985;SDS011;30721;49.380;7.736;2024-03-02T04:15:37;4.30;;;3.10;;
44985;SDS011;30721;49.380;7.736;2024-03-02T04:18:02;3.25;;;2.50;;
44985;SDS011;30721;49.380;7.736;2024-03-02T04:20:28;4.65;;;2.67;;
44985;SDS011;30721;49.380;7.736;2024-03-02T04:22:54;4.18;;;2.50;;
44985;SDS011;30721;49.380;7.736;2024-03-02T04:25:20;3.65;;;2.90;;
44985;SDS011;30721;49.380;7.736;2024-03-02T04:27:45;4.30;;;3.00;;
44985;SDS011;30721;49.380;7.736;2024-03-02T04:30:11;4.07;;;2.95;;
44985;SDS011;30721;49.380;7.736;2024-03-02T04:32:36;4.20;;;2.78;;
44985;SDS011;30721;49.380;7.736;2024-03-02T04:35:02;3.85;;;2.97;;
44985;SDS011;30721;49.380;7.736;2024-03-02T04:37:27;4.80;;;3.08;;
44985;SDS011;30721;49.380;7.736;2024-03-02T04:39:53;3.40;;;2.65;;
44985;SDS011;30721;49.380;7.736;2024-03-02T04:42:18;3.20;;;2.40;;
44985;SDS011;30721;49.380;7.736;2024-03-02T04:44:44;4.13;;;2.30;;
44985;SDS011;30721;49.380;7.736;2024-03-02T04:47:09;4.30;;;2.72;;
44985;SDS011;30721;49.380;7.736;2024-03-02T04:49:34;4.95;;;2.75;;
44985;SDS011;30721;49.380;7.736;2024-03-02T04:52:00;4.05;;;2.80;;
44985;SDS011;30721;49.380;7.736;2024-03-02T04:54:25;4.18;;;2.53;;
44985;SDS011;30721;49.380;7.736;2024-03-02T04:56:51;4.22;;;2.60;;
44985;SDS011;30721;49.380;7.736;2024-03-02T04:59:16;5.75;;;2.78;;
44985;SDS011;30721;49.380;7.736;2024-03-02T05:01:43;3.70;;;2.70;;
44985;SDS011;30721;49.380;7.736;2024-03-02T05:04:08;2.83;;;2.10;;
44985;SDS011;30721;49.380;7.736;2024-03-02T05:06:36;3.60;;;2.40;;
44985;SDS011;30721;49.380;7.736;2024-03-02T05:09:05;4.60;;;2.45;;
44985;SDS011;30721;49.380;7.736;2024-03-02T05:11:31;3.25;;;2.53;;
44985;SDS011;30721;49.380;7.736;2024-03-02T05:14:03;3.35;;;2.30;;
44985;SDS011;30721;49.380;7.736;2024-03-02T05:16:28;3.65;;;2.17;;
44985;SDS011;30721;49.380;7.736;2024-03-02T05:18:54;3.80;;;2.22;;
44985;SDS011;30721;49.380;7.736;2024-03-02T05:21:19;2.75;;;2.20;;
44985;SDS011;30721;49.380;7.736;2024-03-02T05:23:45;3.42;;;2.25;;
44985;SDS011;30721;49.380;7.736;2024-03-02T05:26:10;3.75;;;2.03;;
44985;SDS011;30721;49.380;7.736;2024-03-02T05:28:38;3.67;;;2.30;;
44985;SDS011;30721;49.380;7.736;2024-03-02T05:31:03;2.85;;;2.08;;
44985;SDS011;30721;49.380;7.736;2024-03-02T05:33:29;2.50;;;2.00;;
44985;SDS011;30721;49.380;7.736;2024-03-02T05:35:56;3.53;;;2.10;;
44985;SDS011;30721;49.380;7.736;2024-03-02T05:38:22;3.67;;;1.77;;
44985;SDS011;30721;49.380;7.736;2024-03-02T05:40:47;4.32;;;3.00;;
44985;SDS011;30721;49.380;7.736;2024-03-02T05:43:13;2.88;;;2.17;;
44985;SDS011;30721;49.380;7.736;2024-03-02T05:45:38;3.13;;;2.08;;
44985;SDS011;30721;49.380;7.736;2024-03-02T05:48:05;3.28;;;2.08;;
44985;SDS011;30721;49.380;7.736;2024-03-02T05:50:32;3.30;;;1.98;;
44985;SDS011;30721;49.380;7.736;2024-03-02T05:52:58;2.90;;;2.10;;
44985;SDS011;30721;49.380;7.736;2024-03-02T05:55:24;3.60;;;2.08;;
44985;SDS011;30721;49.380;7.736;2024-03-02T05:57:49;2.83;;;2.00;;
44985;SDS011;30721;49.380;7.736;2024-03-02T06:03:00;2.55;;;1.90;;
44985;SDS011;30721;49.380;7.736;2024-03-02T06:05:25;3.15;;;2.10;;
44985;SDS011;30721;49.380;7.736;2024-03-02T06:07:51;3.33;;;1.80;;
44985;SDS011;30721;49.380;7.736;2024-03-02T06:10:16;3.00;;;2.00;;
44985;SDS011;30721;49.380;7.736;2024-03-02T06:12:42;3.20;;;2.10;;
44985;SDS011;30721;49.380;7.736;2024-03-02T06:15:08;3.25;;;1.73;;
44985;SDS011;30721;49.380;7.736;2024-03-02T06:17:37;2.53;;;1.80;;
44985;SDS011;30721;49.380;7.736;2024-03-02T06:20:02;2.33;;;1.88;;
44985;SDS011;30721;49.380;7.736;2024-03-02T06:22:28;2.97;;;2.10;;
44985;SDS011;30721;49.380;7.736;2024-03-02T06:24:53;2.58;;;1.90;;
44985;SDS011;30721;49.380;7.736;2024-03-02T06:27:19;2.95;;;1.88;;
44985;SDS011;30721;49.380;7.736;2024-03-02T06:29:44;3.13;;;2.03;;
44985;SDS011;30721;49.380;7.736;2024-03-02T06:32:10;2.30;;;1.70;;
44985;SDS011;30721;49.380;7.736;2024-03-02T06:34:35;2.65;;;1.80;;
44985;SDS011;30721;49.380;7.736;2024-03-02T06:37:01;3.45;;;2.13;;
44985;SDS011;30721;49.380;7.736;2024-03-02T06:39:26;3.85;;;2.05;;
44985;SDS011;30721;49.380;7.736;2024-03-02T06:41:51;3.55;;;1.92;;
44985;SDS011;30721;49.380;7.736;2024-03-02T06:44:17;2.60;;;2.00;;
44985;SDS011;30721;49.380;7.736;2024-03-02T06:46:42;3.00;;;2.22;;
44985;SDS011;30721;49.380;7.736;2024-03-02T06:49:08;2.38;;;1.60;;
44985;SDS011;30721;49.380;7.736;2024-03-02T06:51:35;2.42;;;1.90;;
44985;SDS011;30721;49.380;7.736;2024-03-02T06:54:00;2.63;;;1.70;;
44985;SDS011;30721;49.380;7.736;2024-03-02T06:56:26;2.35;;;1.67;;
44985;SDS011;30721;49.380;7.736;2024-03-02T06:58:51;3.58;;;2.10;;
44985;SDS011;30721;49.380;7.736;2024-03-02T07:01:17;2.17;;;1.63;;
44985;SDS011;30721;49.380;7.736;2024-03-02T07:03:42;2.72;;;1.90;;
44985;SDS011;30721;49.380;7.736;2024-03-02T07:06:09;2.63;;;1.67;;
44985;SDS011;30721;49.380;7.736;2024-03-02T07:08:34;2.85;;;1.88;;
44985;SDS011;30721;49.380;7.736;2024-03-02T07:11:00;2.20;;;2.00;;
44985;SDS011;30721;49.380;7.736;2024-03-02T07:13:25;2.83;;;1.63;;
44985;SDS011;30721;49.380;7.736;2024-03-02T07:15:51;2.90;;;1.88;;
44985;SDS011;30721;49.380;7.736;2024-03-02T07:18:31;2.95;;;1.80;;
44985;SDS011;30721;49.380;7.736;2024-03-02T07:20:58;2.92;;;1.60;;
44985;SDS011;30721;49.380;7.736;2024-03-02T07:23:25;2.35;;;1.75;;
44985;SDS011;30721;49.380;7.736;2024-03-02T07:25:55;2.45;;;1.65;;
44985;SDS011;30721;49.380;7.736;2024-03-02T07:28:22;3.45;;;1.75;;
44985;SDS011;30721;49.380;7.736;2024-03-02T07:30:50;2.30;;;1.60;;
44985;SDS011;30721;49.380;7.736;2024-03-02T07:33:26;2.45;;;1.55;;
44985;SDS011;30721;49.380;7.736;2024-03-02T07:35:51;2.10;;;1.70;;
44985;SDS011;30721;49.380;7.736;2024-03-02T07:38:17;2.95;;;1.88;;
44985;SDS011;30721;49.380;7.736;2024-03-02T07:40:42;2.75;;;1.80;;
44985;SDS011;30721;49.380;7.736;2024-03-02T07:43:08;2.33;;;1.63;;
44985;SDS011;30721;49.380;7.736;2024-03-02T07:45:34;2.53;;;1.55;;
44985;SDS011;30721;49.380;7.736;2024-03-02T07:48:01;2.75;;;1.52;;
44985;SDS011;30721;49.380;7.736;2024-03-02T07:50:26;2.53;;;1.85;;
44985;SDS011;30721;49.380;7.736;2024-03-02T07:52:52;3.25;;;1.60;;
44985;SDS011;30721;49.380;7.736;2024-03-02T07:55:17;1.33;;;1.23;;
44985;SDS011;30721;49.380;7.736;2024-03-02T07:57:43;1.90;;;1.70;;
44985;SDS011;30721;49.380;7.736;2024-03-02T08:00:08;2.08;;;1.50;;
44985;SDS011;30721;49.380;7.736;2024-03-02T08:02:34;1.95;;;1.58;;
44985;SDS011;30721;49.380;7.736;2024-03-02T08:05:00;3.60;;;1.58;;
44985;SDS011;30721;49.380;7.736;2024-03-02T08:07:26;2.45;;;1.30;;
44985;SDS011;30721;49.380;7.736;2024-03-02T08:09:51;2.03;;;1.63;;
44985;SDS011;30721;49.380;7.736;2024-03-02T08:12:17;1.60;;;1.30;;
44985;SDS011;30721;49.380;7.736;2024-03-02T08:14:44;1.20;;;0.90;;
44985;SDS011;30721;49.380;7.736;2024-03-02T08:17:10;1.73;;;1.25;;
44985;SDS011;30721;49.380;7.736;2024-03-02T08:19:36;1.30;;;1.17;;
44985;SDS011;30721;49.380;7.736;2024-03-02T08:22:02;1.73;;;1.20;;
44985;SDS011;30721;49.380;7.736;2024-03-02T08:24:30;2.47;;;1.30;;
44985;SDS011;30721;49.380;7.736;2024-03-02T08:26:56;2.67;;;1.23;;
44985;SDS011;30721;49.380;7.736;2024-03-02T08:29:21;2.20;;;1.70;;
44985;SDS011;30721;49.380;7.736;2024-03-02T08:31:46;1.40;;;1.08;;
44985;SDS011;30721;49.380;7.736;2024-03-02T08:34:12;1.55;;;1.23;;
44985;SDS011;30721;49.380;7.736;2024-03-02T08:36:37;1.63;;;1.10;;
44985;SDS011;30721;49.380;7.736;2024-03-02T08:39:03;1.73;;;1.27;;
44985;SDS011;30721;49.380;7.736;2024-03-02T08:41:32;1.27;;;1.00;;
44985;SDS011;30721;49.380;7.736;2024-03-02T08:43:58;3.25;;;1.33;;
44985;SDS011;30721;49.380;7.736;2024-03-02T08:46:23;1.70;;;1.20;;
44985;SDS011;30721;49.380;7.736;2024-03-02T08:48:48;1.23;;;1.13;;
44985;SDS011;30721;49.380;7.736;2024-03-02T08:51:14;1.60;;;1.38;;
44985;SDS011;30721;49.380;7.736;2024-03-02T08:53:39;1.27;;;1.00;;
44985;SDS011;30721;49.380;7.736;2024-03-02T08:56:04;1.25;;;0.47;;
44985;SDS011;30721;49.380;7.736;2024-03-02T08:58:30;1.25;;;0.90;;
44985;SDS011;30721;49.380;7.736;2024-03-02T09:00:56;1.48;;;0.98;;
44985;SDS011;30721;49.380;7.736;2024-03-02T09:03:22;1.02;;;0.77;;
44985;SDS011;30721;49.380;7.736;2024-03-02T09:05:47;1.00;;;0.70;;
44985;SDS011;30721;49.380;7.736;2024-03-02T09:08:12;1.52;;;1.00;;
44985;SDS011;30721;49.380;7.736;2024-03-02T09:10:38;2.35;;;1.40;;
44985;SDS011;30721;49.380;7.736;2024-03-02T09:13:04;1.08;;;0.85;;
44985;SDS011;30721;49.380;7.736;2024-03-02T09:15:30;1.48;;;0.95;;
44985;SDS011;30721;49.380;7.736;2024-03-02T09:17:55;1.40;;;1.10;;
44985;SDS011;30721;49.380;7.736;2024-03-02T09:20:21;1.20;;;0.80;;
44985;SDS011;30721;49.380;7.736;2024-03-02T09:22:47;1.95;;;1.00;;
44985;SDS011;30721;49.380;7.736;2024-03-02T09:25:13;1.13;;;0.82;;
44985;SDS011;30721;49.380;7.736;2024-03-02T09:27:39;1.02;;;0.80;;
44985;SDS011;30721;49.380;7.736;2024-03-02T09:30:05;2.28;;;0.90;;
44985;SDS011;30721;49.380;7.736;2024-03-02T09:32:33;1.25;;;0.80;;
44985;SDS011;30721;49.380;7.736;2024-03-02T09:34:58;1.25;;;0.80;;
44985;SDS011;30721;49.380;7.736;2024-03-02T09:37:24;2.03;;;1.20;;
44985;SDS011;30721;49.380;7.736;2024-03-02T09:39:49;1.27;;;0.80;;
44985;SDS011;30721;49.380;7.736;2024-03-02T09:42:14;1.05;;;0.82;;
44985;SDS011;30721;49.380;7.736;2024-03-02T09:44:40;1.13;;;0.73;;
44985;SDS011;30721;49.380;7.736;2024-03-02T09:47:06;1.65;;;0.75;;
44985;SDS011;30721;49.380;7.736;2024-03-02T09:49:32;1.20;;;0.85;;
44985;SDS011;30721;49.380;7.736;2024-03-02T09:51:57;1.42;;;0.98;;
44985;SDS011;30721;49.380;7.736;2024-03-02T09:54:23;1.20;;;0.80;;
44985;SDS011;30721;49.380;7.736;2024-03-02T09:56:48;3.00;;;1.48;;
44985;SDS011;30721;49.380;7.736;2024-03-02T09:59:14;1.48;;;0.80;;
44985;SDS011;30721;49.380;7.736;2024-03-02T10:01:55;1.35;;;0.90;;
44985;SDS011;30721;49.380;7.736;2024-03-02T10:04:25;1.10;;;0.80;;
44985;SDS011;30721;49.380;7.736;2024-03-02T10:06:51;1.13;;;0.70;;
44985;SDS011;30721;49.380;7.736;2024-03-02T10:09:27;1.52;;;0.80;;
44985;SDS011;30721;49.380;7.736;2024-03-02T10:12:01;1.65;;;0.80;;
44985;SDS011;30721;49.380;7.736;2024-03-02T10:16:54;1.10;;;0.80;;
44985;SDS011;30721;49.380;7.736;2024-03-02T10:19:27;0.60;;;0.40;;
44985;SDS011;30721;49.380;7.736;2024-03-02T10:21:57;1.80;;;0.93;;
44985;SDS011;30721;49.380;7.736;2024-03-02T10:24:23;0.60;;;0.60;;
44985;SDS011;30721;49.380;7.736;2024-03-02T10:26:49;0.70;;;0.50;;
44985;SDS011;30721;49.380;7.736;2024-03-02T10:29:15;1.25;;;0.80;;
44985;SDS011;30721;49.380;7.736;2024-03-02T10:31:41;1.08;;;0.57;;
44985;SDS011;30721;49.380;7.736;2024-03-02T10:34:09;2.17;;;0.60;;
44985;SDS011;30721;49.380;7.736;2024-03-02T10:36:35;1.00;;;0.55;;
44985;SDS011;30721;49.380;7.736;2024-03-02T10:39:05;0.70;;;0.45;;
44985;SDS011;30721;49.380;7.736;2024-03-02T10:41:32;0.93;;;0.57;;
44985;SDS011;30721;49.380;7.736;2024-03-02T10:44:02;0.70;;;0.70;;
44985;SDS011;30721;49.380;7.736;2024-03-02T10:46:28;0.60;;;0.50;;
44985;SDS011;30721;49.380;7.736;2024-03-02T10:48:58;1.02;;;0.52;;
44985;SDS011;30721;49.380;7.736;2024-03-02T10:51:28;0.60;;;0.60;;
44985;SDS011;30721;49.380;7.736;2024-03-02T10:53:56;1.00;;;0.70;;
44985;SDS011;30721;49.380;7.736;2024-03-02T10:56:33;1.77;;;0.55;;
44985;SDS011;30721;49.380;7.736;2024-03-02T11:02:04;1.20;;;0.50;;
44985;SDS011;30721;49.380;7.736;2024-03-02T11:04:32;0.80;;;0.50;;
44985;SDS011;30721;49.380;7.736;2024-03-02T11:07:04;0.80;;;0.60;;
44985;SDS011;30721;49.380;7.736;2024-03-02T11:09:31;0.80;;;0.60;;
44985;SDS011;30721;49.380;7.736;2024-03-02T11:12:03;2.10;;;0.70;;
44985;SDS011;30721;49.380;7.736;2024-03-02T11:14:31;1.02;;;0.55;;
44985;SDS011;30721;49.380;7.736;2024-03-02T11:17:00;0.50;;;0.50;;
44985;SDS011;30721;49.380;7.736;2024-03-02T11:19:27;0.35;;;0.35;;
44985;SDS011;30721;49.380;7.736;2024-03-02T11:21:53;0.95;;;0.52;;
44985;SDS011;30721;49.380;7.736;2024-03-02T11:26:49;0.50;;;0.50;;
44985;SDS011;30721;49.380;7.736;2024-03-02T11:32:22;1.45;;;0.60;;
44985;SDS011;30721;49.380;7.736;2024-03-02T11:34:49;0.85;;;0.40;;
44985;SDS011;30721;49.380;7.736;2024-03-02T11:37:16;1.27;;;0.50;;
44985;SDS011;30721;49.380;7.736;2024-03-02T11:39:43;0.73;;;0.60;;
44985;SDS011;30721;49.380;7.736;2024-03-02T11:42:09;0.50;;;0.45;;
44985;SDS011;30721;49.380;7.736;2024-03-02T11:44:36;0.90;;;0.43;;
44985;SDS011;30721;49.380;7.736;2024-03-02T11:47:05;0.68;;;0.40;;
44985;SDS011;30721;49.380;7.736;2024-03-02T11:49:45;0.75;;;0.50;;
44985;SDS011;30721;49.380;7.736;2024-03-02T11:52:14;0.60;;;0.40;;
44985;SDS011;30721;49.380;7.736;2024-03-02T11:54:45;0.50;;;0.50;;
44985;SDS011;30721;49.380;7.736;2024-03-02T11:57:20;0.40;;;0.40;;
44985;SDS011;30721;49.380;7.736;2024-03-02T11:59:47;1.67;;;0.70;;
44985;SDS011;30721;49.380;7.736;2024-03-02T12:02:20;0.50;;;0.50;;
44985;SDS011;30721;49.380;7.736;2024-03-02T12:04:47;0.50;;;0.50;;
44985;SDS011;30721;49.380;7.736;2024-03-02T12:07:20;0.52;;;0.52;;
44985;SDS011;30721;49.380;7.736;2024-03-02T12:12:15;0.68;;;0.40;;
44985;SDS011;30721;49.380;7.736;2024-03-02T12:14:52;0.50;;;0.35;;
44985;SDS011;30721;49.380;7.736;2024-03-02T12:17:20;0.40;;;0.40;;
44985;SDS011;30721;49.380;7.736;2024-03-02T12:19:45;0.75;;;0.40;;
44985;SDS011;30721;49.380;7.736;2024-03-02T12:22:11;0.50;;;0.50;;
44985;SDS011;30721;49.380;7.736;2024-03-02T12:24:37;0.98;;;0.70;;
44985;SDS011;30721;49.380;7.736;2024-03-02T12:27:03;1.20;;;1.08;;
44985;SDS011;30721;49.380;7.736;2024-03-02T12:29:29;1.13;;;0.60;;
44985;SDS011;30721;49.380;7.736;2024-03-02T12:31:55;1.15;;;0.88;;
44985;SDS011;30721;49.380;7.736;2024-03-02T12:34:21;0.70;;;0.70;;
44985;SDS011;30721;49.380;7.736;2024-03-02T12:36:46;0.73;;;0.70;;
44985;SDS011;30721;49.380;7.736;2024-03-02T12:39:15;0.75;;;0.75;;
44985;SDS011;30721;49.380;7.736;2024-03-02T12:41:41;0.93;;;0.70;;
44985;SDS011;30721;49.380;7.736;2024-03-02T12:44:06;0.70;;;0.70;;
44985;SDS011;30721;49.380;7.736;2024-03-02T12:46:32;1.20;;;0.68;;
44985;SDS011;30721;49.380;7.736;2024-03-02T12:48:58;1.23;;;0.73;;
44985;SDS011;30721;49.380;7.736;2024-03-02T12:51:26;1.63;;;0.80;;
44985;SDS011;30721;49.380;7.736;2024-03-02T12:53:55;0.93;;;0.80;;
44985;SDS011;30721;49.380;7.736;2024-03-02T12:56:20;0.73;;;0.73;;
44985;SDS011;30721;49.380;7.736;2024-03-02T12:58:46;0.75;;;0.50;;
44985;SDS011;30721;49.380;7.736;2024-03-02T13:01:14;0.70;;;0.70;;
44985;SDS011;30721;49.380;7.736;2024-03-02T13:03:40;1.85;;;0.80;;
44985;SDS011;30721;49.380;7.736;2024-03-02T13:06:06;0.70;;;0.60;;
44985;SDS011;30721;49.380;7.736;2024-03-02T13:08:35;0.60;;;0.60;;
44985;SDS011;30721;49.380;7.736;2024-03-02T13:11:00;1.05;;;0.90;;
44985;SDS011;30721;49.380;7.736;2024-03-02T13:13:31;0.65;;;0.43;;
44985;SDS011;30721;49.380;7.736;2024-03-02T13:15:56;1.27;;;0.50;;
44985;SDS011;30721;49.380;7.736;2024-03-02T13:18:22;0.50;;;0.45;;
44985;SDS011;30721;49.380;7.736;2024-03-02T13:20:47;0.73;;;0.40;;
44985;SDS011;30721;49.380;7.736;2024-03-02T13:23:13;0.88;;;0.70;;
44985;SDS011;30721;49.380;7.736;2024-03-02T13:25:39;0.60;;;0.55;;
44985;SDS011;30721;49.380;7.736;2024-03-02T13:28:04;0.40;;;0.40;;
44985;SDS011;30721;49.380;7.736;2024-03-02T13:30:31;1.13;;;0.40;;
44985;SDS011;30721;49.380;7.736;2024-03-02T13:32:57;0.75;;;0.50;;
44985;SDS011;30721;49.380;7.736;2024-03-02T13:35:23;0.30;;;0.30;;
44985;SDS011;30721;49.380;7.736;2024-03-02T13:37:48;0.50;;;0.50;;
44985;SDS011;30721;49.380;7.736;2024-03-02T13:40:15;0.35;;;0.30;;
44985;SDS011;30721;49.380;7.736;2024-03-02T13:42:45;0.47;;;0.40;;
44985;SDS011;30721;49.380;7.736;2024-03-02T13:45:13;0.60;;;0.40;;
44985;SDS011;30721;49.380;7.736;2024-03-02T13:47:38;0.68;;;0.50;;
44985;SDS011;30721;49.380;7.736;2024-03-02T13:50:04;1.00;;;0.52;;
44985;SDS011;30721;49.380;7.736;2024-03-02T13:52:30;0.40;;;0.38;;
44985;SDS011;30721;49.380;7.736;2024-03-02T13:54:56;0.77;;;0.52;;
44985;SDS011;30721;49.380;7.736;2024-03-02T13:57:21;0.40;;;0.40;;
44985;SDS011;30721;49.380;7.736;2024-03-02T13:59:47;1.23;;;0.50;;
44985;SDS011;30721;49.380;7.736;2024-03-02T14:02:12;1.00;;;0.70;;
44985;SDS011;30721;49.380;7.736;2024-03-02T14:04:38;0.98;;;0.55;;
44985;SDS011;30721;49.380;7.736;2024-03-02T14:07:04;0.80;;;0.68;;
44985;SDS011;30721;49.380;7.736;2024-03-02T14:09:32;0.95;;;0.85;;
44985;SDS011;30721;49.380;7.736;2024-03-02T14:11:57;0.70;;;0.70;;
44985;SDS011;30721;49.380;7.736;2024-03-02T14:14:24;0.75;;;0.50;;
44985;SDS011;30721;49.380;7.736;2024-03-02T14:16:49;0.50;;;0.50;;
44985;SDS011;30721;49.380;7.736;2024-03-02T14:19:15;0.60;;;0.35;;
44985;SDS011;30721;49.380;7.736;2024-03-02T14:21:40;0.70;;;0.70;;
44985;SDS011;30721;49.380;7.736;2024-03-02T14:24:06;0.63;;;0.50;;
44985;SDS011;30721;49.380;7.736;2024-03-02T14:26:34;0.63;;;0.63;;
44985;SDS011;30721;49.380;7.736;2024-03-02T14:29:01;1.02;;;0.40;;
44985;SDS011;30721;49.380;7.736;2024-03-02T14:31:27;0.63;;;0.63;;
44985;SDS011;30721;49.380;7.736;2024-03-02T14:33:53;0.50;;;0.50;;
44985;SDS011;30721;49.380;7.736;2024-03-02T14:36:19;0.57;;;0.50;;
44985;SDS011;30721;49.380;7.736;2024-03-02T14:38:44;0.75;;;0.75;;
44985;SDS011;30721;49.380;7.736;2024-03-02T14:41:10;1.30;;;0.47;;
44985;SDS011;30721;49.380;7.736;2024-03-02T14:43:36;0.40;;;0.40;;
44985;SDS011;30721;49.380;7.736;2024-03-02T14:46:02;1.05;;;0.40;;
44985;SDS011;30721;49.380;7.736;2024-03-02T14:48:28;1.27;;;0.50;;
44985;SDS011;30721;49.380;7.736;2024-03-02T14:50:54;0.70;;;0.50;;
44985;SDS011;30721;49.380;7.736;2024-03-02T14:53:19;0.90;;;0.60;;
44985;SDS011;30721;49.380;7.736;2024-03-02T14:55:44;1.45;;;1.08;;
44985;SDS011;30721;49.380;7.736;2024-03-02T14:58:10;1.35;;;0.93;;
44985;SDS011;30721;49.380;7.736;2024-03-02T15:00:35;0.55;;;0.55;;
44985;SDS011;30721;49.380;7.736;2024-03-02T15:03:00;0.95;;;0.80;;